Time;durP1;ratioP1;P1;durP2;ratioP2;P2;SDS_P1;SDS_P2;PMS_P1;PMS_P2;Temp;Humidity;BMP_temperature;BMP_pressure;BME280_temperature;BME280_humidity;BME280_pressure;Samples;Min_cycle;Max_cycle;Signal;HPM_P1;HPM_P2
2021/09/28 00:02:06;;;;;;;5.45;1.15;;;12.20;99.30;;;;;;5055215;28;20357;-63
2021/09/28 00:04:31;;;;;;;5.15;1.35;;;12.10;99.30;;;;;;5055171;28;20495;-63
2021/09/28 00:06:57;;;;;;;8.48;1.40;;;12.10;99.40;;;;;;5063829;28;20082;-63
2021/09/28 00:09:23;;;;;;;4.72;1.67;;;12.10;99.40;;;;;;5058393;28;20024;-63
2021/09/28 00:11:51;;;;;;;6.43;1.70;;;12.10;99.50;;;;;;5055311;28;20033;-63
2021/09/28 00:14:18;;;;;;;4.28;1.33;;;12.00;99.60;;;;;;5053259;28;20451;-64
2021/09/28 00:16:44;;;;;;;6.28;1.17;;;12.00;99.70;;;;;;5051696;28;20107;-63
2021/09/28 00:19:09;;;;;;;6.80;1.38;;;12.00;99.70;;;;;;5056381;28;20098;-63
2021/09/28 00:21:35;;;;;;;8.63;1.80;;;12.00;99.70;;;;;;5057882;28;20090;-64
2021/09/28 00:24:00;;;;;;;3.72;1.48;;;12.00;99.80;;;;;;5042973;28;20429;-63
2021/09/28 00:26:26;;;;;;;9.20;2.38;;;12.00;99.80;;;;;;5052808;28;20077;-63
2021/09/28 00:28:51;;;;;;;6.43;1.33;;;12.00;99.90;;;;;;5057578;28;20028;-63
2021/09/28 00:31:17;;;;;;;6.70;1.33;;;12.10;99.90;;;;;;5063279;28;20388;-63
2021/09/28 00:33:42;;;;;;;8.40;1.20;;;12.10;99.90;;;;;;5066620;28;20539;-64
2021/09/28 00:36:08;;;;;;;7.40;1.13;;;12.00;99.90;;;;;;5037333;28;20095;-63
2021/09/28 00:38:34;;;;;;;5.78;0.85;;;12.00;99.90;;;;;;5064638;28;20048;-63
2021/09/28 00:40:59;;;;;;;5.35;1.23;;;12.00;99.90;;;;;;5051713;28;20062;-63
2021/09/28 00:43:25;;;;;;;5.85;1.27;;;12.10;99.90;;;;;;5056546;28;20020;-63
2021/09/28 00:45:50;;;;;;;6.70;1.10;;;12.10;99.90;;;;;;5046278;28;20036;-63
2021/09/28 00:48:16;;;;;;;8.95;1.42;;;12.10;99.90;;;;;;5051730;28;20563;-64
2021/09/28 00:50:42;;;;;;;5.78;1.40;;;12.10;99.90;;;;;;5054654;28;20488;-63
2021/09/28 00:53:08;;;;;;;5.25;1.50;;;12.10;99.80;;;;;;5053270;28;20029;-63
2021/09/28 00:55:34;;;;;;;9.40;1.20;;;12.10;99.80;;;;;;5058881;28;20067;-63
2021/09/28 00:58:08;;;;;;;5.53;1.17;;;12.10;99.80;;;;;;5056261;28;20800;-64
2021/09/28 01:00:34;;;;;;;5.57;1.30;;;12.10;99.80;;;;;;5054003;28;20071;-63
2021/09/28 01:03:00;;;;;;;6.88;1.25;;;12.10;99.90;;;;;;5048876;28;20449;-64
2021/09/28 01:05:26;;;;;;;5.18;1.20;;;12.00;99.90;;;;;;5053271;28;20035;-63
2021/09/28 01:07:51;;;;;;;7.88;1.48;;;12.00;99.90;;;;;;5055148;28;20029;-63
2021/09/28 01:10:17;;;;;;;6.50;2.17;;;12.00;99.90;;;;;;5057410;28;20491;-63
2021/09/28 01:12:43;;;;;;;9.02;2.13;;;11.90;99.90;;;;;;5043257;28;20052;-63
2021/09/28 01:15:08;;;;;;;7.75;1.40;;;11.80;99.90;;;;;;5062049;28;20159;-63
2021/09/28 01:17:34;;;;;;;8.63;1.10;;;11.80;99.90;;;;;;5055430;28;20016;-64
2021/09/28 01:19:59;;;;;;;5.70;1.52;;;11.80;99.90;;;;;;5051998;28;20130;-63
2021/09/28 01:22:25;;;;;;;5.07;1.30;;;11.80;99.90;;;;;;5048672;28;20047;-64
2021/09/28 01:24:51;;;;;;;7.32;1.30;;;11.70;99.90;;;;;;5059031;28;20425;-64
2021/09/28 01:27:17;;;;;;;7.22;1.67;;;11.70;99.90;;;;;;5046246;28;20171;-63
2021/09/28 01:29:43;;;;;;;4.63;1.25;;;11.70;99.90;;;;;;5055090;28;20079;-64
2021/09/28 01:32:09;;;;;;;9.20;1.35;;;11.60;99.90;;;;;;5044510;28;20112;-63
2021/09/28 01:34:35;;;;;;;4.55;1.23;;;11.60;99.90;;;;;;5050032;28;20025;-63
2021/09/28 01:37:00;;;;;;;6.25;1.63;;;11.60;99.90;;;;;;5039510;28;20029;-63
2021/09/28 01:39:26;;;;;;;6.03;1.20;;;11.60;99.90;;;;;;5024364;28;20119;-63
2021/09/28 01:41:54;;;;;;;6.07;1.65;;;11.60;99.90;;;;;;5045931;28;20028;-63
2021/09/28 01:44:21;;;;;;;5.28;2.00;;;11.60;99.90;;;;;;5052865;28;20017;-63
2021/09/28 01:46:48;;;;;;;6.97;1.80;;;11.60;99.90;;;;;;5054345;28;20036;-63
2021/09/28 01:49:16;;;;;;;10.30;1.90;;;11.50;99.90;;;;;;5055032;28;20029;-63
2021/09/28 01:51:42;;;;;;;10.55;1.90;;;11.50;99.90;;;;;;5059358;28;20480;-63
2021/09/28 01:54:09;;;;;;;9.40;2.63;;;11.40;99.90;;;;;;5037175;28;20053;-63
2021/09/28 01:56:35;;;;;;;8.00;1.75;;;11.40;99.90;;;;;;5053343;28;20049;-64
2021/09/28 01:59:03;;;;;;;6.47;1.30;;;11.40;99.90;;;;;;5037389;28;20318;-63
2021/09/28 02:01:28;;;;;;;4.45;1.33;;;11.40;99.90;;;;;;5046326;28;20066;-63
2021/09/28 02:03:54;;;;;;;4.47;1.05;;;11.40;99.90;;;;;;5054900;28;20032;-63
2021/09/28 02:06:24;;;;;;;6.32;1.73;;;11.30;99.90;;;;;;5051239;28;20027;-63
2021/09/28 02:08:50;;;;;;;5.07;1.50;;;11.30;99.90;;;;;;5054081;28;20026;-63
2021/09/28 02:11:16;;;;;;;10.52;1.83;;;11.30;99.90;;;;;;5059342;28;20043;-63
2021/09/28 02:13:42;;;;;;;7.55;1.95;;;11.30;99.90;;;;;;5052041;28;20396;-63
2021/09/28 02:16:08;;;;;;;10.05;1.60;;;11.20;99.90;;;;;;5039614;28;20120;-63
2021/09/28 02:18:34;;;;;;;9.25;1.40;;;11.20;99.90;;;;;;5051652;28;20025;-63
2021/09/28 02:20:59;;;;;;;5.95;1.45;;;11.20;99.90;;;;;;5048379;28;20027;-63
2021/09/28 02:23:25;;;;;;;6.00;1.50;;;11.20;99.90;;;;;;5052423;28;20036;-64
2021/09/28 02:25:52;;;;;;;5.60;1.40;;;11.10;99.90;;;;;;5054178;28;20025;-63
2021/09/28 02:28:17;;;;;;;7.32;1.70;;;11.10;99.90;;;;;;5061191;28;20029;-63
2021/09/28 02:30:43;;;;;;;9.15;2.28;;;11.10;99.90;;;;;;5044940;28;20056;-63
2021/09/28 02:33:08;;;;;;;8.93;1.85;;;11.10;99.90;;;;;;5052120;28;20028;-63
2021/09/28 02:35:34;;;;;;;6.32;1.75;;;11.00;99.90;;;;;;5056676;28;20124;-63
2021/09/28 02:37:59;;;;;;;9.48;1.92;;;11.00;99.90;;;;;;5044368;28;20053;-63
2021/09/28 02:40:26;;;;;;;7.20;1.65;;;11.00;99.90;;;;;;5053774;28;20017;-63
2021/09/28 02:42:52;;;;;;;4.90;1.40;;;11.00;99.90;;;;;;5039462;28;20073;-63
2021/09/28 02:45:18;;;;;;;3.92;1.40;;;11.00;99.90;;;;;;5054203;28;20021;-63
2021/09/28 02:47:44;;;;;;;6.72;1.55;;;10.90;99.90;;;;;;5040985;28;20100;-63
2021/09/28 02:50:10;;;;;;;9.55;1.80;;;10.90;99.90;;;;;;5054431;28;20029;-63
2021/09/28 02:52:36;;;;;;;5.65;1.45;;;10.90;99.90;;;;;;5048397;28;20163;-63
2021/09/28 02:55:02;;;;;;;7.05;1.30;;;10.90;99.90;;;;;;5046953;28;20491;-63
2021/09/28 02:57:27;;;;;;;8.80;1.55;;;10.80;99.90;;;;;;5046616;28;20563;-63
2021/09/28 02:59:53;;;;;;;8.90;1.25;;;10.80;99.90;;;;;;5036163;28;20115;-63
2021/09/28 03:02:18;;;;;;;5.30;1.40;;;10.80;99.90;;;;;;5050693;28;20393;-63
2021/09/28 03:04:44;;;;;;;9.02;1.85;;;10.80;99.90;;;;;;5054330;28;20051;-63
2021/09/28 03:07:10;;;;;;;10.52;1.70;;;10.70;99.90;;;;;;5047969;28;20153;-63
2021/09/28 03:09:36;;;;;;;7.60;1.60;;;10.70;99.90;;;;;;5052063;28;20025;-63
2021/09/28 03:12:03;;;;;;;8.32;1.65;;;10.70;99.90;;;;;;5054806;28;20033;-63
2021/09/28 03:14:29;;;;;;;8.80;2.20;;;10.70;99.90;;;;;;5045843;28;20385;-63
2021/09/28 03:16:54;;;;;;;4.47;1.30;;;10.70;99.90;;;;;;5050156;28;20491;-63
2021/09/28 03:19:20;;;;;;;5.05;1.23;;;10.70;99.90;;;;;;5055377;28;20020;-63
2021/09/28 03:21:47;;;;;;;6.18;1.33;;;10.70;99.90;;;;;;5041045;28;20008;-63
2021/09/28 03:24:12;;;;;;;7.47;1.25;;;10.70;99.90;;;;;;5051599;28;20029;-63
2021/09/28 03:26:38;;;;;;;9.30;1.77;;;10.70;99.90;;;;;;5039303;28;20067;-63
2021/09/28 03:29:04;;;;;;;6.25;1.13;;;10.70;99.90;;;;;;5050126;28;20028;-63
2021/09/28 03:31:30;;;;;;;5.72;1.50;;;10.70;99.90;;;;;;5049149;28;20022;-63
2021/09/28 03:33:55;;;;;;;3.88;1.05;;;10.80;99.90;;;;;;5049434;28;20079;-63
2021/09/28 03:36:21;;;;;;;9.85;1.40;;;10.80;99.90;;;;;;5054599;28;20362;-63
2021/09/28 03:38:46;;;;;;;6.95;1.55;;;10.90;99.90;;;;;;5051492;28;20048;-63
2021/09/28 03:41:12;;;;;;;5.85;1.33;;;10.90;99.90;;;;;;5052058;28;20029;-63
2021/09/28 03:43:37;;;;;;;5.07;1.40;;;10.90;99.90;;;;;;5051711;28;20055;-63
2021/09/28 03:46:03;;;;;;;7.30;1.33;;;10.90;99.90;;;;;;5051090;28;20021;-63
2021/09/28 03:48:29;;;;;;;5.65;1.27;;;10.90;99.90;;;;;;5063494;28;20053;-63
2021/09/28 03:50:54;;;;;;;7.13;1.30;;;10.90;99.90;;;;;;5052876;28;20053;-63
2021/09/28 03:53:20;;;;;;;7.70;1.70;;;10.90;99.90;;;;;;5047153;28;20396;-63
2021/09/28 03:55:45;;;;;;;8.20;1.80;;;10.90;99.90;;;;;;5051398;28;20115;-63
2021/09/28 03:58:12;;;;;;;5.85;1.48;;;10.90;99.90;;;;;;5033527;28;20022;-64
2021/09/28 04:00:38;;;;;;;5.35;1.13;;;10.90;99.90;;;;;;5025850;28;20024;-63
2021/09/28 04:03:05;;;;;;;6.22;0.95;;;10.90;99.90;;;;;;5046994;28;20417;-63
2021/09/28 04:05:30;;;;;;;6.38;1.27;;;10.90;99.90;;;;;;5053410;28;20392;-63
2021/09/28 04:07:56;;;;;;;4.10;0.90;;;10.90;99.90;;;;;;5044931;28;20029;-63
2021/09/28 04:10:21;;;;;;;6.55;1.60;;;11.00;99.90;;;;;;5055045;28;20029;-63
2021/09/28 04:12:47;;;;;;;7.28;1.25;;;11.00;99.90;;;;;;5047199;28;20031;-63
2021/09/28 04:15:13;;;;;;;7.07;1.30;;;10.90;99.90;;;;;;5036727;28;20460;-63
2021/09/28 04:17:39;;;;;;;5.13;0.75;;;11.00;99.90;;;;;;5034828;28;20044;-63
2021/09/28 04:20:06;;;;;;;4.63;1.00;;;11.00;99.90;;;;;;5060773;28;20460;-63
2021/09/28 04:22:31;;;;;;;5.97;1.00;;;11.00;99.90;;;;;;5051007;28;20575;-63
2021/09/28 04:24:57;;;;;;;4.25;0.90;;;11.00;99.90;;;;;;5054819;28;20485;-63
2021/09/28 04:27:22;;;;;;;6.47;0.93;;;11.00;99.90;;;;;;5052668;28;20036;-63
2021/09/28 04:29:48;;;;;;;6.00;1.20;;;11.00;99.90;;;;;;5046769;28;20029;-63
2021/09/28 04:32:13;;;;;;;4.13;1.30;;;11.00;99.90;;;;;;5048274;28;20020;-63
2021/09/28 04:34:39;;;;;;;5.10;1.00;;;11.00;99.90;;;;;;5055245;28;20083;-63
2021/09/28 04:37:05;;;;;;;5.10;1.00;;;11.10;99.90;;;;;;5054845;28;20022;-63
2021/09/28 04:39:31;;;;;;;8.73;1.33;;;11.00;99.90;;;;;;5049546;28;20018;-63
2021/09/28 04:41:57;;;;;;;5.10;0.85;;;11.00;99.90;;;;;;5050544;28;20083;-63
2021/09/28 04:44:22;;;;;;;5.05;1.05;;;11.00;99.90;;;;;;5058890;28;20079;-65
2021/09/28 04:46:48;;;;;;;5.68;0.98;;;11.00;99.90;;;;;;5047972;28;20060;-63
2021/09/28 04:49:14;;;;;;;5.22;1.00;;;11.00;99.90;;;;;;5047454;28;20056;-63
2021/09/28 04:51:39;;;;;;;4.72;1.20;;;11.00;99.90;;;;;;5055074;28;20468;-63
2021/09/28 04:54:05;;;;;;;4.25;1.08;;;11.00;99.90;;;;;;5046408;28;20444;-63
2021/09/28 04:56:30;;;;;;;5.50;1.05;;;11.00;99.90;;;;;;5055974;28;20404;-63
2021/09/28 04:58:57;;;;;;;4.45;1.00;;;11.00;99.90;;;;;;5041814;28;20021;-63
2021/09/28 05:01:22;;;;;;;2.92;1.00;;;11.00;99.90;;;;;;5047140;28;20033;-63
2021/09/28 05:03:48;;;;;;;6.03;1.00;;;10.90;99.90;;;;;;5056723;28;20025;-63
2021/09/28 05:06:13;;;;;;;7.55;0.90;;;10.90;99.90;;;;;;5056635;28;20037;-63
2021/09/28 05:08:39;;;;;;;6.78;1.15;;;10.90;99.90;;;;;;5035601;28;20093;-63
2021/09/28 05:11:08;;;;;;;9.40;1.15;;;10.80;99.90;;;;;;5053708;28;20047;-63
2021/09/28 05:13:34;;;;;;;8.52;1.48;;;10.70;99.90;;;;;;5049572;28;20032;-63
2021/09/28 05:15:59;;;;;;;4.35;0.88;;;10.70;99.90;;;;;;5062196;28;20024;-63
2021/09/28 05:18:25;;;;;;;6.00;0.95;;;10.70;99.90;;;;;;5055882;28;20019;-63
2021/09/28 05:20:50;;;;;;;4.50;1.40;;;10.60;99.90;;;;;;5059106;28;20056;-63
2021/09/28 05:23:16;;;;;;;7.80;1.98;;;10.60;99.90;;;;;;5047997;28;20036;-63
2021/09/28 05:25:42;;;;;;;5.82;1.55;;;10.50;99.90;;;;;;5049826;28;20063;-63
2021/09/28 05:28:07;;;;;;;5.63;1.20;;;10.50;99.90;;;;;;5059235;28;20032;-63
2021/09/28 05:30:33;;;;;;;6.10;1.15;;;10.40;99.90;;;;;;5059344;28;20032;-63
2021/09/28 05:32:58;;;;;;;6.28;1.60;;;10.40;99.90;;;;;;5050203;28;20035;-63
2021/09/28 05:35:24;;;;;;;6.68;1.50;;;10.40;99.90;;;;;;5025298;28;20041;-63
2021/09/28 05:37:49;;;;;;;6.85;1.67;;;10.40;99.90;;;;;;5061811;28;20024;-63
2021/09/28 05:40:15;;;;;;;8.13;2.28;;;10.40;99.90;;;;;;5044003;28;20025;-62
2021/09/28 05:42:41;;;;;;;5.82;1.15;;;10.40;99.90;;;;;;5045941;28;20029;-63
2021/09/28 05:45:07;;;;;;;5.60;1.63;;;10.40;99.90;;;;;;5035078;28;20022;-63
2021/09/28 05:47:32;;;;;;;5.40;1.08;;;10.40;99.90;;;;;;5027416;28;20021;-62
2021/09/28 05:49:58;;;;;;;5.72;1.20;;;10.40;99.90;;;;;;5065131;28;20048;-63
2021/09/28 05:52:24;;;;;;;4.47;0.93;;;10.40;99.90;;;;;;5043013;28;20061;-63
2021/09/28 05:54:49;;;;;;;3.80;1.20;;;10.50;99.90;;;;;;5040571;28;20101;-63
2021/09/28 05:57:21;;;;;;;5.35;1.10;;;10.50;99.90;;;;;;5040904;28;20367;-63
2021/09/28 05:59:48;;;;;;;9.43;1.50;;;10.50;99.90;;;;;;5032769;28;20390;-63
2021/09/28 06:02:15;;;;;;;5.88;1.10;;;10.50;99.90;;;;;;5034052;28;20107;-63
2021/09/28 06:04:40;;;;;;;7.97;1.70;;;10.50;99.90;;;;;;5047570;28;20022;-63
2021/09/28 06:07:07;;;;;;;9.50;1.63;;;10.50;99.90;;;;;;5032386;28;20028;-63
2021/09/28 06:09:37;;;;;;;7.03;1.88;;;10.40;99.90;;;;;;5050494;28;20045;-63
2021/09/28 06:12:04;;;;;;;6.35;1.75;;;10.40;99.90;;;;;;5049189;28;20029;-63
2021/09/28 06:14:30;;;;;;;8.35;1.83;;;10.40;99.90;;;;;;5053155;28;20017;-63
2021/09/28 06:16:57;;;;;;;6.10;1.55;;;10.40;99.90;;;;;;5041005;28;20026;-63
2021/09/28 06:19:24;;;;;;;5.35;1.70;;;10.50;99.90;;;;;;5051640;28;20499;-63
2021/09/28 06:21:49;;;;;;;6.80;2.10;;;10.50;99.90;;;;;;5043263;28;20013;-63
2021/09/28 06:24:15;;;;;;;6.00;1.50;;;10.50;99.90;;;;;;5045814;28;20067;-63
2021/09/28 06:26:43;;;;;;;8.27;2.53;;;10.60;99.90;;;;;;5033611;28;20057;-63
2021/09/28 06:29:08;;;;;;;6.65;1.42;;;10.60;99.90;;;;;;5041515;28;20480;-62
2021/09/28 06:31:34;;;;;;;8.18;2.03;;;10.60;99.90;;;;;;5053437;28;20090;-63
2021/09/28 06:34:00;;;;;;;5.88;1.98;;;10.60;99.90;;;;;;5039014;28;20033;-63
2021/09/28 06:36:25;;;;;;;8.73;2.13;;;10.70;99.90;;;;;;5053134;28;20047;-63
2021/09/28 06:38:51;;;;;;;6.65;1.65;;;10.70;99.90;;;;;;5035377;28;20025;-63
2021/09/28 06:41:16;;;;;;;9.07;2.10;;;10.70;99.90;;;;;;5042020;28;20017;-63
2021/09/28 06:43:42;;;;;;;9.18;1.75;;;10.80;99.90;;;;;;5036830;28;20063;-63
2021/09/28 06:46:07;;;;;;;8.15;1.70;;;10.80;99.90;;;;;;5039239;28;20090;-64
2021/09/28 06:48:33;;;;;;;6.97;1.88;;;10.90;99.90;;;;;;5051396;28;20038;-63
2021/09/28 06:50:58;;;;;;;12.27;2.63;;;10.90;99.90;;;;;;5033762;28;20033;-64
2021/09/28 06:53:24;;;;;;;12.32;2.78;;;10.90;99.90;;;;;;5028098;28;20117;-64
2021/09/28 06:55:49;;;;;;;8.65;1.80;;;11.00;99.90;;;;;;5051174;28;20037;-63
2021/09/28 06:58:15;;;;;;;9.20;2.13;;;11.00;99.90;;;;;;5023158;28;20025;-63
2021/09/28 07:00:41;;;;;;;6.72;2.35;;;11.10;99.90;;;;;;5046537;28;20116;-63
2021/09/28 07:03:07;;;;;;;6.97;2.50;;;11.10;99.90;;;;;;5042002;28;20036;-63
2021/09/28 07:05:33;;;;;;;8.70;2.05;;;11.20;99.90;;;;;;5048632;28;20057;-63
2021/09/28 07:07:59;;;;;;;6.07;1.80;;;11.20;99.90;;;;;;5048188;28;20060;-63
2021/09/28 07:10:24;;;;;;;8.52;2.25;;;11.20;99.90;;;;;;5042480;28;20041;-63
2021/09/28 07:12:50;;;;;;;6.15;1.85;;;11.30;99.90;;;;;;5025480;28;20362;-63
2021/09/28 07:15:16;;;;;;;6.82;2.22;;;11.40;99.90;;;;;;5043096;28;20024;-63
2021/09/28 07:17:45;;;;;;;5.13;2.08;;;11.50;99.90;;;;;;5040928;28;20091;-63
2021/09/28 07:20:11;;;;;;;7.45;2.50;;;11.50;99.90;;;;;;5028799;28;20354;-64
2021/09/28 07:22:37;;;;;;;11.10;2.22;;;11.60;99.90;;;;;;5045782;28;20095;-63
2021/09/28 07:25:03;;;;;;;7.10;2.22;;;11.60;99.90;;;;;;5045608;28;20079;-63
2021/09/28 07:27:29;;;;;;;4.15;1.60;;;11.70;99.90;;;;;;5048755;28;20025;-63
2021/09/28 07:29:55;;;;;;;4.50;1.70;;;11.80;99.90;;;;;;5029108;28;20119;-63
2021/09/28 07:32:22;;;;;;;7.60;2.10;;;11.90;99.90;;;;;;5047766;28;20043;-63
2021/09/28 07:34:48;;;;;;;8.75;2.42;;;11.90;99.90;;;;;;5046328;28;20500;-63
2021/09/28 07:37:14;;;;;;;8.20;2.63;;;12.00;99.90;;;;;;5043365;28;20036;-63
2021/09/28 07:39:39;;;;;;;9.00;2.80;;;12.10;99.90;;;;;;5047549;28;20100;-62
2021/09/28 07:42:06;;;;;;;8.50;2.55;;;12.10;99.90;;;;;;5042112;28;20104;-63
2021/09/28 07:44:33;;;;;;;6.78;2.50;;;12.20;99.90;;;;;;5045903;28;20040;-63
2021/09/28 07:46:58;;;;;;;9.27;3.00;;;12.30;99.90;;;;;;5045591;28;20381;-63
2021/09/28 07:49:25;;;;;;;6.05;2.55;;;12.40;99.90;;;;;;5045654;28;20478;-63
2021/09/28 07:51:51;;;;;;;9.38;3.08;;;12.40;99.90;;;;;;5044755;28;20443;-63
2021/09/28 07:54:16;;;;;;;6.20;2.65;;;12.50;99.90;;;;;;5021256;28;20029;-63
2021/09/28 07:56:43;;;;;;;9.98;2.78;;;12.50;99.90;;;;;;5049401;28;20515;-63
2021/09/28 07:59:08;;;;;;;12.60;3.38;;;12.60;99.90;;;;;;5050287;28;20017;-63
2021/09/28 08:01:35;;;;;;;13.02;3.15;;;12.70;99.90;;;;;;5048713;28;20353;-63
2021/09/28 08:04:02;;;;;;;6.78;2.72;;;12.70;99.90;;;;;;5038838;28;20029;-63
2021/09/28 08:06:27;;;;;;;5.65;2.33;;;12.80;99.90;;;;;;5044077;28;20121;-63
2021/09/28 08:08:53;;;;;;;10.50;2.58;;;12.90;99.90;;;;;;5031021;28;20120;-63
2021/09/28 08:11:18;;;;;;;9.02;2.83;;;13.00;99.90;;;;;;5048167;28;20037;-63
2021/09/28 08:13:44;;;;;;;10.48;3.75;;;13.10;99.90;;;;;;5036340;28;20761;-63
2021/09/28 08:16:10;;;;;;;9.50;2.95;;;13.10;99.90;;;;;;5051092;28;20032;-63
2021/09/28 08:18:36;;;;;;;6.45;2.58;;;13.20;99.90;;;;;;5046936;28;20595;-64
2021/09/28 08:21:01;;;;;;;10.00;2.80;;;13.30;99.90;;;;;;5022764;28;20022;-63
2021/09/28 08:23:27;;;;;;;10.82;2.97;;;13.40;99.90;;;;;;5052496;28;20021;-63
2021/09/28 08:31:04;;;;;;;8.43;2.47;;;13.60;99.60;;;;;;5054507;28;20036;-63
2021/09/28 08:33:31;;;;;;;8.80;2.15;;;13.70;99.40;;;;;;5048985;28;20013;-63
2021/09/28 08:35:57;;;;;;;7.45;2.50;;;13.80;99.40;;;;;;5051535;28;20486;-63
2021/09/28 08:38:23;;;;;;;10.07;2.40;;;13.90;99.20;;;;;;5051621;28;20028;-63
2021/09/28 08:40:48;;;;;;;8.95;2.50;;;14.00;98.90;;;;;;5048949;28;20013;-63
2021/09/28 08:43:14;;;;;;;10.30;3.03;;;14.10;98.50;;;;;;5038244;28;20029;-63
2021/09/28 08:45:42;;;;;;;11.00;2.90;;;14.20;98.50;;;;;;5036463;28;20092;-63
2021/09/28 08:48:13;;;;;;;12.98;2.83;;;14.30;98.30;;;;;;5034793;28;20393;-64
2021/09/28 08:50:40;;;;;;;11.15;2.80;;;14.40;98.20;;;;;;5048608;28;20470;-63
2021/09/28 08:53:08;;;;;;;8.50;2.65;;;14.50;97.90;;;;;;5050193;28;20022;-63
2021/09/28 08:55:35;;;;;;;6.80;2.20;;;14.50;97.60;;;;;;5052198;28;20045;-63
2021/09/28 08:58:19;;;;;;;9.43;3.53;;;14.60;97.70;;;;;;5045796;28;20018;-63
2021/09/28 09:00:46;;;;;;;9.50;3.47;;;14.70;97.60;;;;;;5053919;28;20021;-63
2021/09/28 09:03:27;;;;;;;13.15;3.00;;;14.80;97.60;;;;;;5049714;28;20021;-63
2021/09/28 09:05:53;;;;;;;6.80;2.55;;;14.90;97.20;;;;;;5042198;28;20040;-63
2021/09/28 09:08:36;;;;;;;6.55;2.30;;;15.00;97.10;;;;;;5053501;28;20091;-63
2021/09/28 09:11:07;;;;;;;7.85;2.35;;;15.20;96.60;;;;;;5053727;28;20025;-64
2021/09/28 09:13:36;;;;;;;8.07;2.42;;;15.20;96.80;;;;;;5051192;28;20029;-63
2021/09/28 09:16:02;;;;;;;8.60;2.83;;;15.30;96.50;;;;;;5016554;28;20496;-63
2021/09/28 09:18:27;;;;;;;12.13;2.60;;;15.40;95.90;;;;;;5030072;28;20056;-63
2021/09/28 09:20:53;;;;;;;13.73;3.50;;;15.40;95.90;;;;;;5051330;28;20067;-63
2021/09/28 09:23:32;;;;;;;13.68;3.47;;;15.50;96.10;;;;;;5052574;28;20017;-63
2021/09/28 09:26:04;;;;;;;9.32;2.45;;;15.50;95.90;;;;;;5038207;28;20025;-63
2021/09/28 09:28:32;;;;;;;11.18;2.58;;;15.60;95.60;;;;;;5054349;28;20082;-63
2021/09/28 09:31:22;;;;;;;9.63;2.88;;;15.70;95.40;;;;;;5036370;28;20057;-63
2021/09/28 09:33:49;;;;;;;12.88;2.72;;;15.80;95.20;;;;;;5033143;28;20024;-63
2021/09/28 09:36:18;;;;;;;11.20;2.67;;;15.90;94.90;;;;;;5024229;28;20052;-63
2021/09/28 09:38:55;;;;;;;8.52;2.70;;;16.00;94.80;;;;;;5026699;28;20060;-63
2021/09/28 09:41:30;;;;;;;9.15;1.98;;;16.00;94.40;;;;;;5044019;28;20079;-63
2021/09/28 09:44:13;;;;;;;8.30;1.77;;;16.10;94.50;;;;;;5048973;28;20025;-64
2021/09/28 09:46:41;;;;;;;13.73;3.35;;;16.30;94.50;;;;;;5048119;28;20028;-63
2021/09/28 09:49:08;;;;;;;14.07;3.70;;;16.50;93.90;;;;;;5039867;28;20025;-64
2021/09/28 09:51:46;;;;;;;8.25;2.42;;;16.50;93.50;;;;;;5047635;28;20057;-64
2021/09/28 09:54:12;;;;;;;10.63;3.08;;;16.70;93.10;;;;;;5050572;28;20404;-64
2021/09/28 09:56:42;;;;;;;10.95;3.53;;;16.80;92.70;;;;;;5026115;28;20041;-63
2021/09/28 09:59:08;;;;;;;9.68;2.80;;;16.80;92.60;;;;;;5027222;28;20053;-63
2021/09/28 10:01:36;;;;;;;11.68;2.35;;;17.00;92.60;;;;;;5045455;28;20570;-64
2021/09/28 10:04:06;;;;;;;9.95;2.10;;;17.10;91.70;;;;;;5013157;28;20022;-64
2021/09/28 10:06:32;;;;;;;5.15;1.30;;;17.20;91.40;;;;;;5027385;28;20553;-64
2021/09/28 10:08:59;;;;;;;5.65;1.30;;;17.40;91.40;;;;;;5014094;28;20112;-64
2021/09/28 10:11:26;;;;;;;8.32;2.30;;;17.60;91.50;;;;;;5024235;28;20029;-64
2021/09/28 10:13:54;;;;;;;6.47;1.80;;;17.90;90.40;;;;;;5018093;28;20433;-64
2021/09/28 10:16:42;;;;;;;9.90;1.80;;;17.90;88.80;;;;;;5024295;28;20445;-64
2021/09/28 10:19:29;;;;;;;7.45;1.80;;;18.20;89.90;;;;;;5029713;28;20519;-63
2021/09/28 10:21:57;;;;;;;7.50;2.38;;;18.40;89.40;;;;;;5029425;28;20032;-64
2021/09/28 10:24:32;;;;;;;8.05;1.80;;;18.70;87.00;;;;;;5024276;28;20017;-64
2021/09/28 10:27:00;;;;;;;8.95;2.67;;;19.00;87.90;;;;;;5031957;28;20030;-64
2021/09/28 10:29:42;;;;;;;8.95;1.92;;;19.40;86.10;;;;;;5027387;28;20036;-64
2021/09/28 10:32:26;;;;;;;6.25;2.20;;;20.20;83.40;;;;;;5022260;28;20075;-64
2021/09/28 10:35:07;;;;;;;10.60;2.75;;;22.30;77.70;;;;;;5017405;28;20032;-64
2021/09/28 10:37:42;;;;;;;6.60;1.90;;;22.50;72.20;;;;;;5031693;28;20406;-64
2021/09/28 10:40:28;;;;;;;6.82;2.13;;;22.20;71.70;;;;;;5013374;28;20462;-64
2021/09/28 10:42:58;;;;;;;8.13;2.05;;;22.80;70.60;;;;;;5020749;28;20060;-64
2021/09/28 10:45:33;;;;;;;4.88;1.27;;;24.30;68.60;;;;;;5031505;28;20018;-64
2021/09/28 10:48:11;;;;;;;10.73;2.30;;;25.70;64.10;;;;;;5019058;28;20114;-64
2021/09/28 10:50:43;;;;;;;6.68;1.80;;;26.60;57.80;;;;;;5013391;28;20022;-64
2021/09/28 10:53:28;;;;;;;7.15;1.80;;;27.50;57.00;;;;;;5022614;28;20033;-64
2021/09/28 10:55:58;;;;;;;5.40;1.60;;;28.80;54.60;;;;;;5028069;28;20045;-64
2021/09/28 10:58:24;;;;;;;5.32;1.63;;;30.40;51.00;;;;;;5022720;28;20584;-64
2021/09/28 11:00:52;;;;;;;3.78;1.70;;;31.60;49.90;;;;;;5028524;28;20037;-64
2021/09/28 11:03:38;;;;;;;4.38;1.45;;;32.30;47.40;;;;;;5026427;28;20440;-64
2021/09/28 11:06:07;;;;;;;5.10;1.30;;;32.80;45.10;;;;;;5028414;28;20033;-64
2021/09/28 11:08:36;;;;;;;4.22;1.48;;;33.30;44.60;;;;;;5031004;28;20052;-64
2021/09/28 11:11:08;;;;;;;6.68;1.50;;;35.00;44.00;;;;;;5025269;28;20072;-64
2021/09/28 11:13:36;;;;;;;5.38;1.73;;;36.50;40.90;;;;;;5028261;28;20060;-64
2021/09/28 11:16:04;;;;;;;7.05;1.77;;;36.10;39.00;;;;;;5029857;28;20026;-64
2021/09/28 11:18:31;;;;;;;9.40;1.27;;;34.80;37.90;;;;;;5026622;28;20014;-64
2021/09/28 11:21:15;;;;;;;7.82;2.08;;;33.70;38.40;;;;;;5012640;28;20014;-64
2021/09/28 11:23:42;;;;;;;6.38;2.00;;;32.80;40.10;;;;;;5018455;28;20033;-63
2021/09/28 11:26:08;;;;;;;4.70;1.13;;;32.70;40.40;;;;;;5011665;28;20025;-64
2021/09/28 11:28:34;;;;;;;4.97;1.80;;;33.00;38.70;;;;;;5010547;28;20025;-65
2021/09/28 11:31:05;;;;;;;4.10;1.30;;;31.50;38.60;;;;;;5028429;28;20009;-64
2021/09/28 11:33:41;;;;;;;3.72;0.95;;;29.10;43.10;;;;;;5028654;28;20099;-63
2021/09/28 11:36:12;;;;;;;8.90;1.67;;;28.90;44.50;;;;;;5028683;28;20492;-63
2021/09/28 11:38:44;;;;;;;5.88;1.60;;;30.20;45.10;;;;;;5028496;28;20030;-63
2021/09/28 11:41:15;;;;;;;5.50;1.40;;;31.50;41.50;;;;;;5007420;28;20363;-63
2021/09/28 11:43:42;;;;;;;4.57;1.17;;;31.60;39.80;;;;;;5014877;28;20022;-64
2021/09/28 11:46:13;;;;;;;6.03;1.60;;;31.30;40.50;;;;;;5026009;28;20624;-64
2021/09/28 11:48:44;;;;;;;4.97;1.10;;;31.50;39.50;;;;;;5012018;28;20076;-64
2021/09/28 11:51:23;;;;;;;4.82;1.17;;;32.00;39.90;;;;;;5025928;28;20025;-64
2021/09/28 11:53:51;;;;;;;6.53;1.80;;;32.30;39.80;;;;;;5012777;28;20406;-65
2021/09/28 11:56:20;;;;;;;5.57;1.35;;;31.70;38.60;;;;;;5030328;28;20049;-64
2021/09/28 11:58:48;;;;;;;4.10;1.20;;;31.10;39.90;;;;;;5034859;28;20025;-64
2021/09/28 12:01:15;;;;;;;5.05;1.10;;;31.10;40.50;;;;;;5050180;28;20495;-64
2021/09/28 12:04:52;;;;;;;3.72;1.10;;;31.40;39.50;;;;;;5049226;28;20021;-64
2021/09/28 12:09:39;;;;;;;4.68;1.20;;;32.10;38.10;;;;;;5040248;28;20493;-64
2021/09/28 12:12:08;;;;;;;4.82;1.30;;;31.70;38.20;;;;;;5034471;28;20044;-64
2021/09/28 12:14:36;;;;;;;5.53;1.15;;;31.90;38.30;;;;;;5044738;28;20040;-64
2021/09/28 12:17:34;;;;;;;5.25;1.60;;;31.60;38.50;;;;;;5041143;28;20021;-64
2021/09/28 12:20:12;;;;;;;4.43;1.30;;;31.00;38.10;;;;;;5037808;28;20021;-64
2021/09/28 12:22:44;;;;;;;3.58;1.23;;;30.00;40.60;;;;;;5025661;28;20968;-63
2021/09/28 12:25:22;;;;;;;6.43;1.48;;;29.90;40.30;;;;;;5039614;28;20571;-63
2021/09/28 12:27:53;;;;;;;4.93;1.00;;;29.60;40.60;;;;;;5049533;28;20025;-63
2021/09/28 12:30:19;;;;;;;3.95;1.02;;;30.50;41.00;;;;;;5035437;28;20021;-63
2021/09/28 12:32:49;;;;;;;5.15;1.20;;;30.60;38.90;;;;;;5048305;28;20104;-63
2021/09/28 12:35:40;;;;;;;3.85;0.98;;;29.80;40.10;;;;;;5053838;28;20036;-63
2021/09/28 12:38:09;;;;;;;3.80;1.00;;;30.50;40.30;;;;;;5046945;28;20079;-63
2021/09/28 12:40:38;;;;;;;;;;;31.80;38.40;;;;;;5029535;28;20027;-63
2021/09/28 12:43:16;;;;;;;3.25;0.80;;;31.70;37.80;;;;;;5050476;28;19908;-64
2021/09/28 12:45:44;;;;;;;4.88;1.63;;;31.40;38.60;;;;;;5047926;28;20021;-64
2021/09/28 12:48:10;;;;;;;4.90;1.08;;;30.90;38.10;;;;;;5050539;28;20032;-63
2021/09/28 12:50:39;;;;;;;5.97;1.42;;;30.30;39.00;;;;;;5051800;28;20141;-63
2021/09/28 12:53:13;;;;;;;4.68;1.10;;;29.90;39.60;;;;;;5053283;28;20029;-64
2021/09/28 12:55:41;;;;;;;7.45;1.15;;;29.30;40.00;;;;;;5049135;28;20053;-64
2021/09/28 12:58:09;;;;;;;5.03;1.40;;;29.90;40.60;;;;;;5034457;28;20021;-64